Latest Weather Observations for Rocky Gully South

IDW60801

Issued at 11:35 pm WST Friday 28 November 2014 (issued every 30 minutes, with the page automatically refreshed every 10 minutes)

About weather observations | Map of weather stations | Latest weather observations for WA | Other Formats
Station Details ID: 009964 Name: ROCKY GULLY Lat: -34.57 Lon: 117.01 Height: 250.0 m
Data from the previous 72 hours. | See also: Recent months at Rocky Gully South
Date/Time
WST
Temp
°C
App
Temp
°C
Dew
Point
Rel
Hum
%
Delta-T
°C
Wind Press
QNH
hPa
Press
MSL
hPa
Rain
since 9 am
mm
Dir
 
Spd
km/h
Gust
km/h
Spd
kts
Gust
kts
28/11:30pm 15.6 15.6 14.1 91 0.9 SW 7 13 4 7 - - 0.2
28/11:00pm 15.9 15.6 14.3 90 0.9 WSW 9 13 5 7 - - 0.2
28/10:30pm 16.0 15.7 14.4 90 0.9 WSW 9 17 5 9 - - 0.2
28/10:00pm 16.0 15.3 14.2 89 1.0 SW 11 17 6 9 - - 0.2
28/09:30pm 16.1 15.8 14.3 89 1.0 SSW 9 20 5 11 - - 0.2
28/09:00pm 16.4 16.1 14.4 88 1.2 S 9 15 5 8 - - 0.2
28/08:30pm 16.7 16.1 14.7 88 1.2 SSW 11 19 6 10 - - 0.2
28/08:00pm 16.7 16.9 14.7 88 1.2 WSW 7 17 4 9 - - 0.2
28/07:30pm 16.9 15.9 14.5 86 1.4 SW 13 20 7 11 - - 0.2
28/07:00pm 17.4 16.4 14.7 84 1.6 SW 13 20 7 11 - - 0.2
28/06:30pm 18.1 17.2 14.8 81 1.9 SW 13 20 7 11 - - 0.2
28/06:00pm 18.9 17.5 14.4 75 2.6 SW 15 28 8 15 - - 0.2
28/05:30pm 19.8 18.1 14.8 73 3.0 S 17 26 9 14 - - 0.2
28/05:00pm 20.0 18.3 14.8 72 3.1 S 17 28 9 15 - - 0.2
28/04:30pm 20.9 19.7 15.0 69 3.5 SSW 15 26 8 14 - - 0.2
28/04:00pm 20.9 19.7 15.0 69 3.5 SSW 15 28 8 15 - - 0.2
28/03:30pm 21.6 20.5 15.2 67 3.8 S 15 26 8 14 - - 0.2
28/03:00pm 22.0 20.4 14.9 64 4.2 S 17 26 9 14 - - 0.2
28/02:30pm 22.8 21.0 14.4 59 5.0 SSW 17 32 9 17 - - 0.2
28/02:00pm 22.3 20.8 15.2 64 4.3 S 17 28 9 15 - - 0.2
28/01:30pm 23.0 22.2 15.1 61 4.8 S 13 22 7 12 - - 0.2
28/01:00pm 23.0 21.7 13.8 56 5.4 SW 13 20 7 11 - - 0.2
28/12:30pm 22.6 22.0 14.7 61 4.7 S 11 17 6 9 - - 0.2
28/12:00pm 21.8 20.7 14.2 62 4.5 SW 13 24 7 13 - - 0.2
28/11:30am 21.4 20.6 15.0 67 3.8 WSW 13 20 7 11 - - 0.2
28/11:00am 21.2 20.7 14.8 67 3.8 SW 11 19 6 10 - - 0.2
28/10:30am 21.7 21.5 15.8 69 3.6 WSW 11 17 6 9 - - 0.2
28/10:00am 21.3 21.6 16.0 72 3.2 S 9 19 5 10 - - 0.0
28/09:30am 20.4 19.8 15.6 74 2.9 SW 13 20 7 11 - - 0.0
28/09:00am 18.3 17.8 15.0 81 1.9 SW 11 20 6 11 - - 7.8
28/08:30am 17.3 17.7 16.2 93 0.7 WSW 9 15 5 8 - - 7.8
28/08:00am 16.4 16.8 15.4 94 0.6 SW 7 11 4 6 - - 7.8
28/07:30am 15.6 16.7 14.6 94 0.6 W 2 6 1 3 - - 7.8
28/07:00am 15.0 15.5 14.0 94 0.6 N 4 7 2 4 - - 7.8
28/06:30am 14.9 15.0 13.9 94 0.6 NNE 6 9 3 5 - - 7.8
28/06:00am 14.8 16.0 13.8 94 0.6 CALM 0 0 0 0 - - 7.8
28/05:30am 14.5 14.8 13.5 94 0.6 ENE 4 7 2 4 - - 7.8
28/05:00am 13.9 13.5 13.0 94 0.5 NE 7 11 4 6 - - 7.8
28/04:30am 13.8 13.4 12.9 94 0.5 NE 7 11 4 6 - - 7.8
28/04:00am 12.0 11.2 11.1 94 0.5 NNE 6 9 3 5 - - 7.8
28/03:30am 11.7 10.8 10.8 94 0.5 N 6 7 3 4 - - 7.8
28/03:00am 11.5 10.6 10.6 94 0.5 N 6 6 3 3 - - 7.8
28/02:30am 11.4 11.5 10.3 93 0.6 CALM 0 0 0 0 - - 7.8
28/02:00am 12.5 12.9 11.4 93 0.6 CALM 0 0 0 0 - - 7.8
28/01:30am 12.8 13.3 11.7 93 0.6 CALM 0 0 0 0 - - 7.8
28/01:00am 12.5 12.9 11.4 93 0.6 CALM 0 2 0 1 - - 7.8
28/12:30am 12.4 12.8 11.1 92 0.7 CALM 0 7 0 4 - - 7.8
28/12:00am 13.2 13.8 11.9 92 0.7 CALM 0 0 0 0 - - 7.8
 
Date/Time
WST
Temp
°C
App
Temp
°C
Dew
Point
Rel
Hum
%
Delta-T
°C
Wind Press
QNH
hPa
Press
MSL
hPa
Rain
since 9 am
mm
Dir
 
Spd
km/h
Gust
km/h
Spd
kts
Gust
kts
27/11:30pm 13.6 14.3 12.3 92 0.7 CALM 0 0 0 0 - - 7.8
27/11:00pm 13.5 14.2 12.2 92 0.7 CALM 0 0 0 0 - - 7.8
27/10:30pm 14.4 15.0 13.1 92 0.7 ESE 2 7 1 4 - - 7.8
27/10:00pm 14.5 14.3 13.0 91 0.8 SE 6 6 3 3 - - 7.8
27/09:30pm 15.1 15.5 13.6 91 0.8 ESE 4 7 2 4 - - 7.6
27/09:00pm 15.4 15.5 13.8 90 0.9 ESE 6 7 3 4 - - 7.6
27/08:30pm 16.2 17.3 14.6 90 0.9 E 2 7 1 4 - - 7.6
27/08:00pm 16.4 16.7 14.4 88 1.2 S 6 7 3 4 - - 7.6
27/07:30pm 17.4 17.7 15.0 86 1.4 NE 7 11 4 6 - - 7.6
27/07:00pm 18.0 17.3 15.3 84 1.6 NNE 13 20 7 11 - - 7.6
27/06:30pm 18.2 18.5 16.0 87 1.3 ENE 9 17 5 9 - - 7.6
27/06:00pm 18.6 18.7 16.6 88 1.2 NE 11 20 6 11 - - 7.6
27/05:30pm 19.4 20.8 17.4 88 1.2 ENE 6 9 3 5 - - 7.2
27/05:00pm 19.2 20.3 17.2 88 1.2 NE 7 13 4 7 - - 7.2
27/04:30pm 19.4 20.7 17.2 87 1.4 SSE 6 13 3 7 - - 7.2
27/04:00pm 19.8 20.7 16.6 82 2.0 N 7 11 4 6 - - 6.4
27/03:30pm 20.3 20.5 16.7 80 2.2 W 11 15 6 8 - - 6.4
27/03:00pm 20.1 20.8 17.1 83 1.8 SW 9 17 5 9 - - 6.4
27/02:30pm 19.8 20.3 16.6 82 2.0 NNW 9 15 5 8 - - 6.4
27/02:00pm 20.2 20.6 16.2 78 2.4 W 9 17 5 9 - - 6.4
27/01:30pm 20.7 21.7 16.9 79 2.3 W 7 13 4 7 - - 6.4
27/01:00pm 19.4 20.4 16.8 85 1.6 NNW 7 11 4 6 - - 6.4
27/12:30pm 18.6 19.2 16.8 89 1.1 NNW 9 15 5 8 - - 6.4
27/12:00pm 17.8 18.2 16.3 91 0.9 NNW 9 11 5 6 - - 6.4
27/11:30am 17.4 18.0 15.9 91 0.9 N 7 11 4 6 - - 6.0
27/11:00am 17.1 17.2 15.6 91 0.9 NNW 9 17 5 9 - - 4.8
27/10:30am 17.4 17.2 15.7 90 1.0 NNW 11 17 6 9 - - 2.4
27/10:00am 17.8 18.0 15.8 88 1.2 NNW 9 15 5 8 - - 0.8
27/09:30am 18.2 19.0 15.8 86 1.4 NNW 6 11 3 6 - - 0.4
27/09:00am 18.7 19.3 15.9 84 1.7 N 7 11 4 6 - - 1.4
27/08:30am 18.2 19.0 15.8 86 1.4 ENE 6 11 3 6 - - 1.4
27/08:00am 17.3 17.7 15.3 88 1.2 E 7 13 4 7 - - 1.4
27/07:30am 16.8 17.2 15.3 91 0.9 E 7 13 4 7 - - 1.4
27/07:00am 16.4 16.4 15.1 92 0.8 ESE 9 15 5 8 - - 1.4
27/06:30am 16.1 15.9 14.8 92 0.8 ESE 9 15 5 8 - - 1.4
27/06:00am 15.8 16.0 14.7 93 0.6 SE 7 11 4 6 - - 1.4
27/05:30am 15.6 15.8 14.3 92 0.7 SE 6 9 3 5 - - 1.4
27/05:00am 15.5 15.5 14.2 92 0.7 SE 7 9 4 5 - - 1.4
27/04:30am 15.5 15.5 14.2 92 0.7 SE 7 9 4 5 - - 1.4
27/04:00am 15.5 15.5 14.2 92 0.7 SSE 7 13 4 7 - - 1.4
27/03:30am 15.5 15.1 14.2 92 0.7 SSE 9 15 5 8 - - 1.4
27/03:00am 15.4 15.0 14.1 92 0.7 SSE 9 15 5 8 - - 1.4
27/02:30am 15.4 14.9 13.9 91 0.9 SSE 9 15 5 8 - - 1.4
27/02:00am 15.5 15.4 14.0 91 0.9 SE 7 15 4 8 - - 1.4
27/01:30am 15.6 15.6 14.1 91 0.9 SE 7 13 4 7 - - 1.0
27/01:00am 15.7 15.7 14.2 91 0.9 SSE 7 13 4 7 - - 1.0
27/12:30am 15.8 15.8 14.3 91 0.9 ESE 7 11 4 6 - - 1.0
27/12:00am 16.0 15.7 14.5 91 0.9 S 9 13 5 7 - - 1.0
 
Date/Time
WST
Temp
°C
App
Temp
°C
Dew
Point
Rel
Hum
%
Delta-T
°C
Wind Press
QNH
hPa
Press
MSL
hPa
Rain
since 9 am
mm
Dir
 
Spd
km/h
Gust
km/h
Spd
kts
Gust
kts
26/11:30pm 16.2 16.0 14.6 90 0.9 SE 9 13 5 7 - - 1.0
26/11:00pm 16.5 16.8 14.9 90 0.9 SSE 7 9 4 5 - - 1.0
26/10:30pm 16.7 17.5 14.9 89 1.1 SSW 4 7 2 4 - - 0.8
26/10:00pm 17.0 18.6 15.0 88 1.2 CALM 0 0 0 0 - - 0.6
26/09:30pm 17.1 17.6 14.9 87 1.3 NW 6 9 3 5 - - 0.4
26/09:00pm 17.4 18.7 14.1 81 1.9 CALM 0 9 0 5 - - 0.4
26/08:30pm 19.2 20.0 12.7 66 3.7 CALM 0 2 0 1 - - 0.0
26/08:00pm 19.6 19.1 12.8 65 3.9 SSE 7 9 4 5 - - 0.0
26/07:30pm 20.2 19.7 12.7 62 4.3 SSE 7 11 4 6 - - 0.0
26/07:00pm 21.5 20.3 12.9 58 5.0 ESE 11 17 6 9 - - 0.0
26/06:30pm 22.7 21.4 12.6 53 5.8 ESE 11 20 6 11 - - 0.0
26/06:00pm 23.6 22.4 12.9 51 6.2 ESE 11 20 6 11 - - 0.0
26/05:30pm 24.3 22.4 12.9 49 6.7 ESE 15 30 8 16 - - 0.0
26/05:00pm 25.4 23.3 12.3 44 7.6 ESE 15 28 8 15 - - 0.0
26/04:30pm 26.1 23.1 11.8 41 8.3 ESE 19 32 10 17 - - 0.0
26/04:00pm 26.2 24.8 12.3 42 8.1 SE 11 17 6 9 - - 0.0
26/03:30pm 30.3 27.7 6.2 22 13.0 N 9 20 5 11 - - 0.0
26/03:00pm 30.2 27.9 7.4 24 12.5 NE 9 17 5 9 - - 0.0
26/02:30pm 29.8 26.9 6.5 23 12.6 ENE 11 22 6 12 - - 0.0
26/02:00pm 29.5 26.3 6.8 24 12.3 NE 13 22 7 12 - - 0.0
26/01:30pm 30.0 26.5 7.2 24 12.4 E 15 26 8 14 - - 0.0
26/01:00pm 29.0 25.6 7.6 26 11.7 ENE 15 28 8 15 - - 0.0
26/12:30pm 27.8 23.9 7.1 27 11.1 NE 17 28 9 15 - - 0.0
26/12:00pm 27.6 23.4 7.5 28 10.9 NNE 19 32 10 17 - - 0.0
26/11:30am 26.7 22.6 7.7 30 10.3 NNE 19 33 10 18 - - 0.0
26/11:00am 25.9 23.0 10.9 39 8.5 E 17 33 9 18 - - 0.0
26/10:30am 23.8 20.6 9.8 41 7.7 E 17 28 9 15 - - 0.0
26/10:00am 23.9 21.1 9.9 41 7.8 ENE 15 30 8 16 - - 0.0
26/09:30am 22.9 20.6 10.3 45 7.0 E 13 24 7 13 - - 0.0
26/09:00am 21.3 18.0 9.5 47 6.4 E 17 30 9 16 - - 0.0
26/08:30am 20.6 18.8 11.0 54 5.3 ENE 11 20 6 11 - - 0.0
26/08:00am 18.3 15.2 10.2 59 4.4 ENE 17 28 9 15 - - 0.0
26/07:30am 17.3 15.1 10.7 65 3.6 ENE 13 26 7 14 - - 0.0
26/07:00am 15.5 13.3 10.7 73 2.6 ENE 13 24 7 13 - - 0.0
26/06:30am 14.2 12.9 11.4 83 1.5 E 9 15 5 8 - - 0.0
26/06:00am 12.4 11.5 10.5 88 1.0 E 6 9 3 5 - - 0.0
26/05:30am 12.0 10.8 10.4 90 0.8 ENE 7 17 4 9 - - 0.0
26/05:00am 11.6 10.3 10.0 90 0.8 E 7 13 4 7 - - 0.0
26/04:30am 11.6 9.9 9.9 89 0.9 E 9 19 5 10 - - 0.0
26/04:00am 11.6 9.9 9.7 88 1.0 E 9 15 5 8 - - 0.0
26/03:30am 11.6 9.9 9.7 88 1.0 E 9 17 5 9 - - 0.0
26/03:00am 11.7 9.9 9.6 87 1.1 E 9 15 5 8 - - 0.0
26/02:30am 12.0 9.9 9.6 85 1.2 E 11 19 6 10 - - 0.0
26/02:00am 12.3 10.2 9.9 85 1.2 ENE 11 19 6 10 - - 0.0
26/01:30am 12.4 10.0 10.0 85 1.2 E 13 24 7 13 - - 0.0
26/01:00am 12.4 10.3 9.8 84 1.3 E 11 20 6 11 - - 0.0
26/12:30am 12.6 10.6 10.0 84 1.4 E 11 24 6 13 - - 0.0
26/12:00am 12.6 10.6 10.0 84 1.4 E 11 19 6 10 - - 0.0

Other Formats:

Comma delimited format used in spreadsheet applications
http://www.bom.gov.au/fwo/IDW60801/IDW60801.94631.axf

JavaScript Object Notation format (JSON) in row-major order
http://www.bom.gov.au/fwo/IDW60801/IDW60801.94631.json